sensor_id;sensor_type;location;lat;lon;timestamp;temperature;humidity
25536;DHT22;13431;51.352;6.412;2022-09-09T00:04:37;13.60;99.90
25536;DHT22;13431;51.352;6.412;2022-09-09T00:18:53;13.90;99.90
25536;DHT22;13431;51.352;6.412;2022-09-09T00:21:58;13.90;99.90
25536;DHT22;13431;51.352;6.412;2022-09-09T00:24:32;13.80;99.90
25536;DHT22;13431;51.352;6.412;2022-09-09T00:27:11;13.80;99.90
25536;DHT22;13431;51.352;6.412;2022-09-09T00:29:56;13.60;99.90
25536;DHT22;13431;51.352;6.412;2022-09-09T00:32:29;13.60;99.90
25536;DHT22;13431;51.352;6.412;2022-09-09T00:35:04;13.50;99.90
25536;DHT22;13431;51.352;6.412;2022-09-09T00:37:37;13.40;99.90
25536;DHT22;13431;51.352;6.412;2022-09-09T00:40:38;13.40;99.90
25536;DHT22;13431;51.352;6.412;2022-09-09T00:48:45;13.60;99.90
25536;DHT22;13431;51.352;6.412;2022-09-09T00:54:28;13.50;99.90
25536;DHT22;13431;51.352;6.412;2022-09-09T01:11:14;13.60;99.90
25536;DHT22;13431;51.352;6.412;2022-09-09T01:13:45;13.60;99.90
25536;DHT22;13431;51.352;6.412;2022-09-09T01:16:17;13.60;99.90
25536;DHT22;13431;51.352;6.412;2022-09-09T01:18:49;13.70;99.90
25536;DHT22;13431;51.352;6.412;2022-09-09T01:21:35;13.70;99.90
25536;DHT22;13431;51.352;6.412;2022-09-09T01:24:31;13.50;99.90
25536;DHT22;13431;51.352;6.412;2022-09-09T01:27:25;13.50;99.90
25536;DHT22;13431;51.352;6.412;2022-09-09T01:29:53;13.60;99.90
25536;DHT22;13431;51.352;6.412;2022-09-09T01:32:50;13.60;99.90
25536;DHT22;13431;51.352;6.412;2022-09-09T01:37:51;13.40;99.90
25536;DHT22;13431;51.352;6.412;2022-09-09T01:40:18;13.40;99.90
25536;DHT22;13431;51.352;6.412;2022-09-09T01:42:48;13.30;99.90
25536;DHT22;13431;51.352;6.412;2022-09-09T01:45:16;13.20;99.90
25536;DHT22;13431;51.352;6.412;2022-09-09T01:47:44;13.20;99.90
25536;DHT22;13431;51.352;6.412;2022-09-09T01:50:20;13.30;99.90
25536;DHT22;13431;51.352;6.412;2022-09-09T01:52:58;13.50;99.90
25536;DHT22;13431;51.352;6.412;2022-09-09T01:55:31;13.60;99.90
25536;DHT22;13431;51.352;6.412;2022-09-09T01:58:13;13.60;99.90
25536;DHT22;13431;51.352;6.412;2022-09-09T02:03:57;13.40;99.90
25536;DHT22;13431;51.352;6.412;2022-09-09T02:06:27;13.40;99.90
25536;DHT22;13431;51.352;6.412;2022-09-09T02:09:11;13.40;99.90
25536;DHT22;13431;51.352;6.412;2022-09-09T02:11:41;13.40;99.90
25536;DHT22;13431;51.352;6.412;2022-09-09T02:14:27;13.30;99.90
25536;DHT22;13431;51.352;6.412;2022-09-09T02:17:01;13.30;99.90
25536;DHT22;13431;51.352;6.412;2022-09-09T02:19:54;13.30;99.90
25536;DHT22;13431;51.352;6.412;2022-09-09T02:22:35;13.40;99.90
25536;DHT22;13431;51.352;6.412;2022-09-09T02:25:05;13.40;99.90
25536;DHT22;13431;51.352;6.412;2022-09-09T02:27:34;13.40;99.90
25536;DHT22;13431;51.352;6.412;2022-09-09T02:30:04;13.40;99.90
25536;DHT22;13431;51.352;6.412;2022-09-09T02:32:37;13.40;99.90
25536;DHT22;13431;51.352;6.412;2022-09-09T02:35:15;13.40;99.90
25536;DHT22;13431;51.352;6.412;2022-09-09T02:37:45;13.40;99.90
25536;DHT22;13431;51.352;6.412;2022-09-09T02:40:17;13.30;99.90
25536;DHT22;13431;51.352;6.412;2022-09-09T02:42:49;13.30;99.90
25536;DHT22;13431;51.352;6.412;2022-09-09T02:45:25;13.30;99.90
25536;DHT22;13431;51.352;6.412;2022-09-09T02:47:59;13.30;99.90
25536;DHT22;13431;51.352;6.412;2022-09-09T02:50:45;13.40;99.90
25536;DHT22;13431;51.352;6.412;2022-09-09T02:53:23;13.50;99.90
25536;DHT22;13431;51.352;6.412;2022-09-09T02:56:03;13.60;99.90
25536;DHT22;13431;51.352;6.412;2022-09-09T02:58:35;13.70;99.90
25536;DHT22;13431;51.352;6.412;2022-09-09T03:01:05;13.70;99.90
25536;DHT22;13431;51.352;6.412;2022-09-09T03:03:33;13.80;99.90
25536;DHT22;13431;51.352;6.412;2022-09-09T03:06:05;13.80;99.90
25536;DHT22;13431;51.352;6.412;2022-09-09T03:08:33;13.80;99.90
25536;DHT22;13431;51.352;6.412;2022-09-09T03:11:01;13.80;99.90
25536;DHT22;13431;51.352;6.412;2022-09-09T03:13:31;13.80;99.90
25536;DHT22;13431;51.352;6.412;2022-09-09T03:15:59;13.70;99.90
25536;DHT22;13431;51.352;6.412;2022-09-09T03:18:29;13.70;99.90
25536;DHT22;13431;51.352;6.412;2022-09-09T03:20:57;13.80;99.90
25536;DHT22;13431;51.352;6.412;2022-09-09T03:23:26;13.80;99.90
25536;DHT22;13431;51.352;6.412;2022-09-09T03:25:54;13.70;99.90
25536;DHT22;13431;51.352;6.412;2022-09-09T03:28:31;13.70;99.90
25536;DHT22;13431;51.352;6.412;2022-09-09T03:31:02;13.70;99.90
25536;DHT22;13431;51.352;6.412;2022-09-09T03:33:33;13.60;99.90
25536;DHT22;13431;51.352;6.412;2022-09-09T03:36:05;13.60;99.90
25536;DHT22;13431;51.352;6.412;2022-09-09T03:38:34;13.60;99.90
25536;DHT22;13431;51.352;6.412;2022-09-09T03:41:02;13.60;99.90
25536;DHT22;13431;51.352;6.412;2022-09-09T03:43:29;13.60;99.90
25536;DHT22;13431;51.352;6.412;2022-09-09T03:45:57;13.70;99.90
25536;DHT22;13431;51.352;6.412;2022-09-09T03:48:27;13.80;99.90
25536;DHT22;13431;51.352;6.412;2022-09-09T03:50:55;13.80;99.90
25536;DHT22;13431;51.352;6.412;2022-09-09T03:53:25;13.80;99.90
25536;DHT22;13431;51.352;6.412;2022-09-09T03:55:55;13.80;99.90
25536;DHT22;13431;51.352;6.412;2022-09-09T03:58:25;13.90;99.90
25536;DHT22;13431;51.352;6.412;2022-09-09T04:01:00;13.90;99.90
25536;DHT22;13431;51.352;6.412;2022-09-09T04:03:28;13.90;99.90
25536;DHT22;13431;51.352;6.412;2022-09-09T04:05:58;13.90;99.90
25536;DHT22;13431;51.352;6.412;2022-09-09T04:08:28;13.80;99.90
25536;DHT22;13431;51.352;6.412;2022-09-09T04:10:59;13.80;99.90
25536;DHT22;13431;51.352;6.412;2022-09-09T04:13:29;13.80;99.90
25536;DHT22;13431;51.352;6.412;2022-09-09T04:15:59;13.90;99.90
25536;DHT22;13431;51.352;6.412;2022-09-09T04:18:27;13.90;99.90
25536;DHT22;13431;51.352;6.412;2022-09-09T04:20:58;14.00;99.90
25536;DHT22;13431;51.352;6.412;2022-09-09T04:23:28;14.00;99.90
25536;DHT22;13431;51.352;6.412;2022-09-09T04:25:58;14.20;99.90
25536;DHT22;13431;51.352;6.412;2022-09-09T04:28:30;14.20;99.90
25536;DHT22;13431;51.352;6.412;2022-09-09T04:31:23;14.20;99.90
25536;DHT22;13431;51.352;6.412;2022-09-09T04:33:56;14.20;99.90
25536;DHT22;13431;51.352;6.412;2022-09-09T04:36:25;14.30;99.90
25536;DHT22;13431;51.352;6.412;2022-09-09T04:38:57;14.30;99.90
25536;DHT22;13431;51.352;6.412;2022-09-09T04:41:25;14.30;99.90
25536;DHT22;13431;51.352;6.412;2022-09-09T04:43:53;14.30;99.90
25536;DHT22;13431;51.352;6.412;2022-09-09T04:46:22;14.30;99.90
25536;DHT22;13431;51.352;6.412;2022-09-09T04:48:51;14.30;99.90
25536;DHT22;13431;51.352;6.412;2022-09-09T04:51:19;14.30;99.90
25536;DHT22;13431;51.352;6.412;2022-09-09T04:53:49;14.30;99.90
25536;DHT22;13431;51.352;6.412;2022-09-09T04:56:18;14.30;99.90
25536;DHT22;13431;51.352;6.412;2022-09-09T04:58:50;14.20;99.90
25536;DHT22;13431;51.352;6.412;2022-09-09T05:01:21;14.30;99.90
25536;DHT22;13431;51.352;6.412;2022-09-09T05:03:51;14.30;99.90
25536;DHT22;13431;51.352;6.412;2022-09-09T05:06:22;14.30;99.90
25536;DHT22;13431;51.352;6.412;2022-09-09T05:08:54;14.30;99.90
25536;DHT22;13431;51.352;6.412;2022-09-09T05:11:29;14.30;99.90
25536;DHT22;13431;51.352;6.412;2022-09-09T05:14:02;14.30;99.90
25536;DHT22;13431;51.352;6.412;2022-09-09T05:16:31;14.40;99.90
25536;DHT22;13431;51.352;6.412;2022-09-09T05:18:58;14.40;99.90
25536;DHT22;13431;51.352;6.412;2022-09-09T05:21:33;14.50;99.90
25536;DHT22;13431;51.352;6.412;2022-09-09T05:24:00;14.40;99.90
25536;DHT22;13431;51.352;6.412;2022-09-09T05:26:28;14.50;99.90
25536;DHT22;13431;51.352;6.412;2022-09-09T05:28:57;14.60;99.90
25536;DHT22;13431;51.352;6.412;2022-09-09T05:31:26;14.70;99.90
25536;DHT22;13431;51.352;6.412;2022-09-09T05:33:55;14.70;99.90
25536;DHT22;13431;51.352;6.412;2022-09-09T05:36:23;14.70;99.90
25536;DHT22;13431;51.352;6.412;2022-09-09T05:38:54;14.60;99.90
25536;DHT22;13431;51.352;6.412;2022-09-09T05:41:23;14.70;99.90
25536;DHT22;13431;51.352;6.412;2022-09-09T05:43:54;14.80;99.90
25536;DHT22;13431;51.352;6.412;2022-09-09T05:46:23;14.80;99.90
25536;DHT22;13431;51.352;6.412;2022-09-09T05:48:53;14.90;99.90
25536;DHT22;13431;51.352;6.412;2022-09-09T05:51:28;15.00;99.90
25536;DHT22;13431;51.352;6.412;2022-09-09T05:54:03;15.10;99.90
25536;DHT22;13431;51.352;6.412;2022-09-09T05:56:34;15.10;99.90
25536;DHT22;13431;51.352;6.412;2022-09-09T05:59:02;15.10;99.90
25536;DHT22;13431;51.352;6.412;2022-09-09T06:01:32;15.20;99.90
25536;DHT22;13431;51.352;6.412;2022-09-09T06:04:02;15.30;99.90
25536;DHT22;13431;51.352;6.412;2022-09-09T06:06:33;15.50;99.90
25536;DHT22;13431;51.352;6.412;2022-09-09T06:09:09;15.70;99.90
25536;DHT22;13431;51.352;6.412;2022-09-09T06:11:39;15.80;99.90
25536;DHT22;13431;51.352;6.412;2022-09-09T06:14:07;15.80;99.90
25536;DHT22;13431;51.352;6.412;2022-09-09T06:16:36;15.70;99.90
25536;DHT22;13431;51.352;6.412;2022-09-09T06:19:10;15.70;99.90
25536;DHT22;13431;51.352;6.412;2022-09-09T06:21:40;15.70;99.90
25536;DHT22;13431;51.352;6.412;2022-09-09T06:24:09;15.70;99.90
25536;DHT22;13431;51.352;6.412;2022-09-09T06:26:38;15.70;99.90
25536;DHT22;13431;51.352;6.412;2022-09-09T06:29:12;15.80;99.90
25536;DHT22;13431;51.352;6.412;2022-09-09T06:31:41;16.00;99.90
25536;DHT22;13431;51.352;6.412;2022-09-09T06:34:15;16.40;99.90
25536;DHT22;13431;51.352;6.412;2022-09-09T06:36:46;16.60;99.90
25536;DHT22;13431;51.352;6.412;2022-09-09T06:39:14;16.70;99.90
25536;DHT22;13431;51.352;6.412;2022-09-09T06:41:43;16.80;99.90
25536;DHT22;13431;51.352;6.412;2022-09-09T06:44:39;16.90;99.90
25536;DHT22;13431;51.352;6.412;2022-09-09T06:47:11;16.90;99.90
25536;DHT22;13431;51.352;6.412;2022-09-09T06:49:40;17.00;99.90
25536;DHT22;13431;51.352;6.412;2022-09-09T06:52:11;17.20;99.90
25536;DHT22;13431;51.352;6.412;2022-09-09T06:54:39;17.40;99.90
25536;DHT22;13431;51.352;6.412;2022-09-09T06:57:06;17.70;99.90
25536;DHT22;13431;51.352;6.412;2022-09-09T06:59:54;17.80;99.90
25536;DHT22;13431;51.352;6.412;2022-09-09T07:02:21;17.90;99.90
25536;DHT22;13431;51.352;6.412;2022-09-09T07:04:49;18.00;99.90
25536;DHT22;13431;51.352;6.412;2022-09-09T07:07:18;18.10;99.90
25536;DHT22;13431;51.352;6.412;2022-09-09T07:09:45;18.30;99.90
25536;DHT22;13431;51.352;6.412;2022-09-09T07:12:14;18.30;99.90
25536;DHT22;13431;51.352;6.412;2022-09-09T07:14:48;18.30;99.90
25536;DHT22;13431;51.352;6.412;2022-09-09T07:17:16;18.20;99.90
25536;DHT22;13431;51.352;6.412;2022-09-09T07:19:43;18.60;99.90
25536;DHT22;13431;51.352;6.412;2022-09-09T07:22:11;19.00;99.90
25536;DHT22;13431;51.352;6.412;2022-09-09T07:24:39;19.30;99.90
25536;DHT22;13431;51.352;6.412;2022-09-09T07:27:06;19.50;99.90
25536;DHT22;13431;51.352;6.412;2022-09-09T07:29:35;19.50;99.90
25536;DHT22;13431;51.352;6.412;2022-09-09T07:32:03;19.60;99.90
25536;DHT22;13431;51.352;6.412;2022-09-09T07:34:35;20.00;99.90
25536;DHT22;13431;51.352;6.412;2022-09-09T07:37:02;20.00;99.90
25536;DHT22;13431;51.352;6.412;2022-09-09T07:39:31;20.00;99.90
25536;DHT22;13431;51.352;6.412;2022-09-09T07:41:59;20.00;99.90
25536;DHT22;13431;51.352;6.412;2022-09-09T07:44:27;20.60;99.90
25536;DHT22;13431;51.352;6.412;2022-09-09T07:47:08;20.80;99.90
25536;DHT22;13431;51.352;6.412;2022-09-09T07:49:40;21.20;99.90
25536;DHT22;13431;51.352;6.412;2022-09-09T07:52:08;23.00;99.90
25536;DHT22;13431;51.352;6.412;2022-09-09T07:54:38;23.90;99.90
25536;DHT22;13431;51.352;6.412;2022-09-09T07:57:06;24.30;99.90
25536;DHT22;13431;51.352;6.412;2022-09-09T07:59:36;25.70;99.90
25536;DHT22;13431;51.352;6.412;2022-09-09T08:02:05;25.70;99.90
25536;DHT22;13431;51.352;6.412;2022-09-09T08:04:34;26.70;99.90
25536;DHT22;13431;51.352;6.412;2022-09-09T08:07:03;27.10;99.90
25536;DHT22;13431;51.352;6.412;2022-09-09T08:09:36;26.40;99.90
25536;DHT22;13431;51.352;6.412;2022-09-09T08:12:15;28.20;99.90
25536;DHT22;13431;51.352;6.412;2022-09-09T08:14:43;27.60;99.90
25536;DHT22;13431;51.352;6.412;2022-09-09T08:17:10;27.10;99.90
25536;DHT22;13431;51.352;6.412;2022-09-09T08:19:38;26.60;99.90
25536;DHT22;13431;51.352;6.412;2022-09-09T08:22:11;26.60;99.90
25536;DHT22;13431;51.352;6.412;2022-09-09T08:24:39;24.90;99.90
25536;DHT22;13431;51.352;6.412;2022-09-09T08:27:08;24.60;99.90
25536;DHT22;13431;51.352;6.412;2022-09-09T08:29:37;23.40;99.90
25536;DHT22;13431;51.352;6.412;2022-09-09T08:32:05;22.70;99.90
25536;DHT22;13431;51.352;6.412;2022-09-09T08:34:34;22.30;99.90
25536;DHT22;13431;51.352;6.412;2022-09-09T08:37:06;22.10;99.90
25536;DHT22;13431;51.352;6.412;2022-09-09T08:39:37;21.60;99.90
25536;DHT22;13431;51.352;6.412;2022-09-09T08:42:29;22.30;99.90
25536;DHT22;13431;51.352;6.412;2022-09-09T08:50:36;23.30;99.90
25536;DHT22;13431;51.352;6.412;2022-09-09T08:53:22;21.90;99.90
25536;DHT22;13431;51.352;6.412;2022-09-09T08:55:56;21.00;99.90
25536;DHT22;13431;51.352;6.412;2022-09-09T08:58:59;21.10;99.90
25536;DHT22;13431;51.352;6.412;2022-09-09T09:10:03;19.90;99.90
25536;DHT22;13431;51.352;6.412;2022-09-09T09:12:53;20.60;99.90
25536;DHT22;13431;51.352;6.412;2022-09-09T09:15:30;21.40;99.90
25536;DHT22;13431;51.352;6.412;2022-09-09T09:17:59;22.70;99.90
25536;DHT22;13431;51.352;6.412;2022-09-09T09:23:19;23.80;99.90
25536;DHT22;13431;51.352;6.412;2022-09-09T09:25:48;25.80;99.90
25536;DHT22;13431;51.352;6.412;2022-09-09T09:28:22;25.80;99.90
25536;DHT22;13431;51.352;6.412;2022-09-09T09:31:04;26.40;99.90
25536;DHT22;13431;51.352;6.412;2022-09-09T09:33:50;26.20;99.90
25536;DHT22;13431;51.352;6.412;2022-09-09T09:36:32;27.70;99.90
25536;DHT22;13431;51.352;6.412;2022-09-09T09:39:03;27.80;99.90
25536;DHT22;13431;51.352;6.412;2022-09-09T09:41:53;27.60;99.90
25536;DHT22;13431;51.352;6.412;2022-09-09T09:44:28;26.30;99.90
25536;DHT22;13431;51.352;6.412;2022-09-09T09:47:19;25.80;99.90
25536;DHT22;13431;51.352;6.412;2022-09-09T09:49:58;24.50;99.90
25536;DHT22;13431;51.352;6.412;2022-09-09T09:52:30;23.80;99.90
25536;DHT22;13431;51.352;6.412;2022-09-09T09:55:03;23.00;99.90
25536;DHT22;13431;51.352;6.412;2022-09-09T09:57:34;22.00;99.90
25536;DHT22;13431;51.352;6.412;2022-09-09T10:00:37;21.30;99.90
25536;DHT22;13431;51.352;6.412;2022-09-09T10:03:24;21.10;99.90
25536;DHT22;13431;51.352;6.412;2022-09-09T10:05:53;20.90;99.90
25536;DHT22;13431;51.352;6.412;2022-09-09T10:08:22;20.50;99.90
25536;DHT22;13431;51.352;6.412;2022-09-09T10:11:10;20.10;99.90
25536;DHT22;13431;51.352;6.412;2022-09-09T10:19:32;19.70;99.90
25536;DHT22;13431;51.352;6.412;2022-09-09T10:22:25;19.60;99.90
25536;DHT22;13431;51.352;6.412;2022-09-09T10:25:30;19.80;99.90
25536;DHT22;13431;51.352;6.412;2022-09-09T10:36:49;21.50;99.90
25536;DHT22;13431;51.352;6.412;2022-09-09T10:39:39;21.90;99.90
25536;DHT22;13431;51.352;6.412;2022-09-09T10:42:12;22.60;99.90
25536;DHT22;13431;51.352;6.412;2022-09-09T10:45:19;22.50;99.90
25536;DHT22;13431;51.352;6.412;2022-09-09T10:48:04;21.60;99.90
25536;DHT22;13431;51.352;6.412;2022-09-09T10:56:20;20.30;99.90
25536;DHT22;13431;51.352;6.412;2022-09-09T11:01:33;21.60;99.90
25536;DHT22;13431;51.352;6.412;2022-09-09T11:04:22;22.00;99.90
25536;DHT22;13431;51.352;6.412;2022-09-09T11:06:56;22.00;99.90
25536;DHT22;13431;51.352;6.412;2022-09-09T11:09:28;21.90;99.90
25536;DHT22;13431;51.352;6.412;2022-09-09T11:12:01;21.80;99.90
25536;DHT22;13431;51.352;6.412;2022-09-09T11:17:40;21.40;99.90
25536;DHT22;13431;51.352;6.412;2022-09-09T11:20:13;21.40;99.90
25536;DHT22;13431;51.352;6.412;2022-09-09T11:22:46;21.30;99.90
25536;DHT22;13431;51.352;6.412;2022-09-09T11:25:34;21.10;99.90
25536;DHT22;13431;51.352;6.412;2022-09-09T11:44:40;22.20;99.90
25536;DHT22;13431;51.352;6.412;2022-09-09T11:47:27;21.90;99.90
25536;DHT22;13431;51.352;6.412;2022-09-09T11:50:28;22.20;99.90
25536;DHT22;13431;51.352;6.412;2022-09-09T11:53:15;21.60;99.90
25536;DHT22;13431;51.352;6.412;2022-09-09T11:55:43;21.20;99.90
25536;DHT22;13431;51.352;6.412;2022-09-09T12:00:46;21.40;99.90
25536;DHT22;13431;51.352;6.412;2022-09-09T12:06:08;20.60;99.90
25536;DHT22;13431;51.352;6.412;2022-09-09T12:08:36;20.40;99.90
25536;DHT22;13431;51.352;6.412;2022-09-09T12:11:04;19.90;99.90
25536;DHT22;13431;51.352;6.412;2022-09-09T12:13:32;20.00;99.90
25536;DHT22;13431;51.352;6.412;2022-09-09T12:16:01;19.90;99.90
25536;DHT22;13431;51.352;6.412;2022-09-09T12:18:35;19.80;99.90
25536;DHT22;13431;51.352;6.412;2022-09-09T12:21:34;19.70;99.90
25536;DHT22;13431;51.352;6.412;2022-09-09T12:24:15;19.30;99.90
25536;DHT22;13431;51.352;6.412;2022-09-09T12:26:53;19.40;99.90
25536;DHT22;13431;51.352;6.412;2022-09-09T12:32:04;20.20;99.90
25536;DHT22;13431;51.352;6.412;2022-09-09T12:34:38;20.40;99.90
25536;DHT22;13431;51.352;6.412;2022-09-09T12:37:30;20.40;99.90
25536;DHT22;13431;51.352;6.412;2022-09-09T12:40:00;20.70;99.90
25536;DHT22;13431;51.352;6.412;2022-09-09T12:42:29;21.00;99.90
25536;DHT22;13431;51.352;6.412;2022-09-09T12:44:59;21.40;99.90
25536;DHT22;13431;51.352;6.412;2022-09-09T12:47:58;21.10;99.90
25536;DHT22;13431;51.352;6.412;2022-09-09T12:50:36;20.70;99.90
25536;DHT22;13431;51.352;6.412;2022-09-09T12:53:11;20.30;99.90
25536;DHT22;13431;51.352;6.412;2022-09-09T12:55:51;20.00;99.90
25536;DHT22;13431;51.352;6.412;2022-09-09T12:58:19;20.10;99.90
25536;DHT22;13431;51.352;6.412;2022-09-09T13:00:52;20.10;99.90
25536;DHT22;13431;51.352;6.412;2022-09-09T13:03:23;20.30;99.90
25536;DHT22;13431;51.352;6.412;2022-09-09T13:05:52;20.60;99.90
25536;DHT22;13431;51.352;6.412;2022-09-09T13:08:20;20.90;99.90
25536;DHT22;13431;51.352;6.412;2022-09-09T13:11:04;21.00;99.90
25536;DHT22;13431;51.352;6.412;2022-09-09T13:13:41;20.70;99.90
25536;DHT22;13431;51.352;6.412;2022-09-09T13:16:26;20.70;99.90
25536;DHT22;13431;51.352;6.412;2022-09-09T13:19:13;20.70;99.90
25536;DHT22;13431;51.352;6.412;2022-09-09T13:21:42;21.00;99.90
25536;DHT22;13431;51.352;6.412;2022-09-09T13:26:55;21.00;99.90
25536;DHT22;13431;51.352;6.412;2022-09-09T13:29:23;20.70;99.90
25536;DHT22;13431;51.352;6.412;2022-09-09T13:31:51;20.70;99.90
25536;DHT22;13431;51.352;6.412;2022-09-09T13:34:31;20.70;99.90
25536;DHT22;13431;51.352;6.412;2022-09-09T13:37:01;20.60;99.90
25536;DHT22;13431;51.352;6.412;2022-09-09T13:39:29;20.30;99.90
25536;DHT22;13431;51.352;6.412;2022-09-09T13:41:57;20.40;99.90
25536;DHT22;13431;51.352;6.412;2022-09-09T13:44:31;20.30;99.90
25536;DHT22;13431;51.352;6.412;2022-09-09T13:49:43;19.90;99.90
25536;DHT22;13431;51.352;6.412;2022-09-09T13:52:17;19.50;99.90
25536;DHT22;13431;51.352;6.412;2022-09-09T13:54:49;19.30;99.90
25536;DHT22;13431;51.352;6.412;2022-09-09T13:57:22;19.20;99.90
25536;DHT22;13431;51.352;6.412;2022-09-09T13:59:49;19.10;99.90
25536;DHT22;13431;51.352;6.412;2022-09-09T14:02:33;18.90;99.90
25536;DHT22;13431;51.352;6.412;2022-09-09T14:05:01;18.40;99.90
25536;DHT22;13431;51.352;6.412;2022-09-09T14:07:28;17.40;99.90
25536;DHT22;13431;51.352;6.412;2022-09-09T14:09:56;16.80;99.90
25536;DHT22;13431;51.352;6.412;2022-09-09T14:12:23;16.30;99.90
25536;DHT22;13431;51.352;6.412;2022-09-09T14:14:50;15.90;99.90
25536;DHT22;13431;51.352;6.412;2022-09-09T14:17:18;15.80;99.90
25536;DHT22;13431;51.352;6.412;2022-09-09T14:19:45;15.70;99.90
25536;DHT22;13431;51.352;6.412;2022-09-09T14:22:13;15.60;99.90
25536;DHT22;13431;51.352;6.412;2022-09-09T14:24:41;15.50;99.90
25536;DHT22;13431;51.352;6.412;2022-09-09T14:27:08;15.50;99.90
25536;DHT22;13431;51.352;6.412;2022-09-09T14:29:35;15.50;99.90
25536;DHT22;13431;51.352;6.412;2022-09-09T14:32:03;15.50;99.90
25536;DHT22;13431;51.352;6.412;2022-09-09T14:34:30;15.50;99.90
25536;DHT22;13431;51.352;6.412;2022-09-09T14:36:59;15.50;99.90
25536;DHT22;13431;51.352;6.412;2022-09-09T14:39:26;15.50;99.90
25536;DHT22;13431;51.352;6.412;2022-09-09T14:41:54;15.60;99.90
25536;DHT22;13431;51.352;6.412;2022-09-09T14:44:21;15.60;99.90
25536;DHT22;13431;51.352;6.412;2022-09-09T14:46:49;15.60;99.90
25536;DHT22;13431;51.352;6.412;2022-09-09T14:49:17;15.70;99.90
25536;DHT22;13431;51.352;6.412;2022-09-09T14:51:44;15.70;99.90
25536;DHT22;13431;51.352;6.412;2022-09-09T14:54:11;15.90;99.90
25536;DHT22;13431;51.352;6.412;2022-09-09T14:56:39;16.10;99.90
25536;DHT22;13431;51.352;6.412;2022-09-09T14:59:06;16.30;99.90
25536;DHT22;13431;51.352;6.412;2022-09-09T15:01:33;16.70;99.90
25536;DHT22;13431;51.352;6.412;2022-09-09T15:04:04;16.90;99.90
25536;DHT22;13431;51.352;6.412;2022-09-09T15:06:34;17.60;99.90
25536;DHT22;13431;51.352;6.412;2022-09-09T15:09:03;18.00;99.90
25536;DHT22;13431;51.352;6.412;2022-09-09T15:11:33;18.30;99.90
25536;DHT22;13431;51.352;6.412;2022-09-09T15:14:05;18.60;99.90
25536;DHT22;13431;51.352;6.412;2022-09-09T15:16:34;18.70;99.90
25536;DHT22;13431;51.352;6.412;2022-09-09T15:19:02;18.90;99.90
25536;DHT22;13431;51.352;6.412;2022-09-09T15:21:32;18.80;99.90
25536;DHT22;13431;51.352;6.412;2022-09-09T15:24:00;18.80;99.90
25536;DHT22;13431;51.352;6.412;2022-09-09T15:26:28;18.80;99.90
25536;DHT22;13431;51.352;6.412;2022-09-09T15:28:57;18.90;99.90
25536;DHT22;13431;51.352;6.412;2022-09-09T15:31:28;19.10;99.90
25536;DHT22;13431;51.352;6.412;2022-09-09T15:33:59;19.10;99.90
25536;DHT22;13431;51.352;6.412;2022-09-09T15:36:32;19.00;99.90
25536;DHT22;13431;51.352;6.412;2022-09-09T15:39:01;18.90;99.90
25536;DHT22;13431;51.352;6.412;2022-09-09T15:41:28;19.10;99.90
25536;DHT22;13431;51.352;6.412;2022-09-09T15:43:56;19.20;99.90
25536;DHT22;13431;51.352;6.412;2022-09-09T15:46:45;19.20;99.90
25536;DHT22;13431;51.352;6.412;2022-09-09T15:49:20;19.30;99.90
25536;DHT22;13431;51.352;6.412;2022-09-09T15:51:59;19.30;99.90
25536;DHT22;13431;51.352;6.412;2022-09-09T15:54:35;19.10;99.90
25536;DHT22;13431;51.352;6.412;2022-09-09T15:57:07;18.90;99.90
25536;DHT22;13431;51.352;6.412;2022-09-09T15:59:35;18.80;99.90
25536;DHT22;13431;51.352;6.412;2022-09-09T16:02:03;18.70;99.90
25536;DHT22;13431;51.352;6.412;2022-09-09T16:04:32;18.90;99.90
25536;DHT22;13431;51.352;6.412;2022-09-09T16:07:05;19.00;99.90
25536;DHT22;13431;51.352;6.412;2022-09-09T16:09:33;19.10;99.90
25536;DHT22;13431;51.352;6.412;2022-09-09T16:12:02;19.10;99.90
25536;DHT22;13431;51.352;6.412;2022-09-09T16:14:30;19.10;99.90
25536;DHT22;13431;51.352;6.412;2022-09-09T16:17:02;19.00;99.90
25536;DHT22;13431;51.352;6.412;2022-09-09T16:19:30;19.00;99.90
25536;DHT22;13431;51.352;6.412;2022-09-09T16:21:57;18.90;99.90
25536;DHT22;13431;51.352;6.412;2022-09-09T16:24:25;18.80;99.90
25536;DHT22;13431;51.352;6.412;2022-09-09T16:26:54;18.80;99.90
25536;DHT22;13431;51.352;6.412;2022-09-09T16:29:22;18.70;99.90
25536;DHT22;13431;51.352;6.412;2022-09-09T16:31:50;18.70;99.90
25536;DHT22;13431;51.352;6.412;2022-09-09T16:34:18;18.70;99.90
25536;DHT22;13431;51.352;6.412;2022-09-09T16:36:47;18.70;99.90
25536;DHT22;13431;51.352;6.412;2022-09-09T16:39:17;18.70;99.90
25536;DHT22;13431;51.352;6.412;2022-09-09T16:41:46;18.70;99.90
25536;DHT22;13431;51.352;6.412;2022-09-09T16:44:16;18.70;99.90
25536;DHT22;13431;51.352;6.412;2022-09-09T16:46:47;18.70;99.90
25536;DHT22;13431;51.352;6.412;2022-09-09T16:49:16;18.70;99.90
25536;DHT22;13431;51.352;6.412;2022-09-09T16:51:48;18.60;99.90
25536;DHT22;13431;51.352;6.412;2022-09-09T16:54:16;18.60;99.90
25536;DHT22;13431;51.352;6.412;2022-09-09T16:56:46;18.50;99.90
25536;DHT22;13431;51.352;6.412;2022-09-09T16:59:15;18.40;99.90
25536;DHT22;13431;51.352;6.412;2022-09-09T17:01:45;18.20;99.90
25536;DHT22;13431;51.352;6.412;2022-09-09T17:04:18;18.20;99.90
25536;DHT22;13431;51.352;6.412;2022-09-09T17:06:52;18.10;99.90
25536;DHT22;13431;51.352;6.412;2022-09-09T17:09:21;18.10;99.90
25536;DHT22;13431;51.352;6.412;2022-09-09T17:11:50;18.00;99.90
25536;DHT22;13431;51.352;6.412;2022-09-09T17:14:20;17.90;99.90
25536;DHT22;13431;51.352;6.412;2022-09-09T17:16:48;17.90;99.90
25536;DHT22;13431;51.352;6.412;2022-09-09T17:19:16;17.80;99.90
25536;DHT22;13431;51.352;6.412;2022-09-09T17:21:43;17.80;99.90
25536;DHT22;13431;51.352;6.412;2022-09-09T17:24:32;17.80;99.90
25536;DHT22;13431;51.352;6.412;2022-09-09T17:27:01;17.60;99.90
25536;DHT22;13431;51.352;6.412;2022-09-09T17:29:29;17.50;99.90
25536;DHT22;13431;51.352;6.412;2022-09-09T17:31:56;17.30;99.90
25536;DHT22;13431;51.352;6.412;2022-09-09T17:34:24;17.20;99.90
25536;DHT22;13431;51.352;6.412;2022-09-09T17:36:52;17.10;99.90
25536;DHT22;13431;51.352;6.412;2022-09-09T17:39:19;17.00;99.90
25536;DHT22;13431;51.352;6.412;2022-09-09T17:41:47;17.00;99.90
25536;DHT22;13431;51.352;6.412;2022-09-09T17:44:14;16.90;99.90
25536;DHT22;13431;51.352;6.412;2022-09-09T17:46:43;17.00;99.90
25536;DHT22;13431;51.352;6.412;2022-09-09T17:49:13;17.00;99.90
25536;DHT22;13431;51.352;6.412;2022-09-09T17:51:41;16.90;99.90
25536;DHT22;13431;51.352;6.412;2022-09-09T17:54:18;16.90;99.90
25536;DHT22;13431;51.352;6.412;2022-09-09T17:56:46;16.80;99.90
25536;DHT22;13431;51.352;6.412;2022-09-09T17:59:15;17.00;99.90
25536;DHT22;13431;51.352;6.412;2022-09-09T18:01:45;17.10;99.90